CheckWX is a tool to help pilots better visualize weather data.  It is not intended as a substitute for an official pre-flight weather briefing.

21:00:54 UTC

CYUT METAR
Repulse Bay Airport
Repulse Bay, Canada
Current

1 hour ago

CYUT 182000Z 35013G20KT 3SM BLSN FEW080 SCT100 M31/M35 A2992 RMK AC1AS2 SLP139
Observed
Feb-18 @ 20:00 UTC
Wind
  • 350° at 13 KTS
  • Gusting to 20 KTS
Visibility
3 SM
Flight Rules
MVFR
Conditions
Blowing Snow
Cloud Levels
  • Few at 8,000' AGL
  • Scattered at 10,000' AGL
Temperature
-31°C / -24°F
Dewpoint
-35°C / -31°F
Humidity
68%
Altimeter
29.92" Hg
Pressure
1013.9 hPa
Previous

2 hours ago

CYUT 181900Z 35015G23KT 3SM BLSN FEW080 SCT100 M31/M35 A2994 RMK AC1AS2 SLP143
Observed
Feb-18 @ 19:00 UTC
Wind
  • 350° at 15 KTS
  • Gusting to 23 KTS
Visibility
3 SM
Flight Rules
MVFR
Conditions
Blowing Snow
Cloud Levels
  • Few at 8,000' AGL
  • Scattered at 10,000' AGL
Temperature
-31°C / -24°F
Dewpoint
-35°C / -31°F
Humidity
68%
Altimeter
29.94" Hg
Pressure
1014.3 hPa
Previous

3 hours ago

CYUT 181805Z 35017G23KT 3SM BLSN FEW080 SCT100 M31/M36 A2994 RMK AC1AS2 SLP145
Observed
Feb-18 @ 18:05 UTC
Wind
  • 350° at 17 KTS
  • Gusting to 23 KTS
Visibility
3 SM
Flight Rules
MVFR
Conditions
Blowing Snow
Cloud Levels
  • Few at 8,000' AGL
  • Scattered at 10,000' AGL
Temperature
-31°C / -24°F
Dewpoint
-36°C / -33°F
Humidity
61%
Altimeter
29.94" Hg
Pressure
1014.5 hPa